Date,TemperatureHighF,TemperatureAvgF,TemperatureLowF,DewpointHighF,DewpointAvgF,DewpointLowF,HumidityHigh,HumidityAvg,HumidityLow,PressureMaxIn,PressureMinIn,WindSpeedMaxMPH,WindSpeedAvgMPH,GustSpeedMaxMPH,PrecipitationSumIn
2013-1-1,38.7,32.9,21.0,11.3,2.8,-9.3,36,28,19,29.97,29.80,28,6,28,0.00
2013-1-2,30.9,22.3,13.6,-0.5,-5.9,-12.8,37,28,20,30.15,29.94,19,4,19,0.00
2013-1-3,30.4,20.2,8.6,0.9,-8.3,-18.5,42,28,20,30.18,30.03,15,3,15,0.00
2013-1-4,38.5,30.3,20.3,10.2,5.0,0.9,44,34,23,30.03,29.88,19,5,19,0.00
2013-1-5,45.1,32.6,23.7,10.1,3.6,-3.3,49,30,17,30.24,29.94,21,4,21,0.04
2013-1-6,44.6,34.0,25.5,18.0,12.5,8.6,58,42,27,30.21,29.94,15,3,15,0.00
2013-1-7,42.3,32.4,21.9,23.5,8.7,-1.8,61,39,18,30.39,30.00,12,2,12,0.00
2013-1-8,46.6,32.8,19.0,19.0,10.9,6.5,66,43,22,30.39,30.30,20,3,20,0.00
2013-1-9,43.7,34.1,22.3,24.0,18.0,12.5,71,53,32,30.39,30.09,22,3,22,0.00
2013-1-10,46.8,39.1,29.5,18.4,5.2,-2.4,41,25,14,30.53,30.15,24,4,24,0.00
2013-1-11,37.8,32.1,25.5,29.4,17.4,8.0,78,56,33,30.53,30.12,8,0,8,0.31
2013-1-12,44.8,39.7,35.4,40.2,35.0,24.8,85,83,78,30.18,30.09,7,1,7,0.08
2013-1-13,47.3,43.2,38.5,43.0,38.1,34.1,86,82,76,30.15,30.00,11,1,11,0.00
2013-1-14,54.7,45.8,35.1,50.7,31.6,8.8,87,62,29,30.30,29.91,16,3,16,0.04
2013-1-15,37.0,34.1,31.1,20.8,11.1,6.4,59,39,29,30.33,30.21,10,2,10,0.00
2013-1-16,33.8,31.8,29.7,26.4,22.0,7.3,77,68,33,30.21,29.85,12,2,12,0.04
2013-1-17,46.6,35.3,27.1,26.5,14.8,-3.2,78,47,23,30.09,29.88,17,3,17,0.24
2013-1-18,29.8,23.9,18.3,-3.2,-10.2,-15.6,26,21,16,30.45,30.03,18,5,18,0.04
2013-1-19,44.1,35.8,23.4,10.1,2.6,-9.9,32,24,18,30.36,29.88,15,5,17,0.04
2013-1-20,51.4,40.1,26.4,13.0,4.0,-13.7,38,23,13,30.00,29.65,28,7,30,0.04
2013-1-21,30.9,25.3,19.9,8.8,-4.9,-16.6,54,28,16,30.06,29.80,20,2,20,0.04
2013-1-22,24.3,18.2,9.9,7.7,-12.1,-24.1,57,26,17,30.12,29.77,28,8,30,0.04
2013-1-23,20.5,12.0,6.4,-14.8,-22.3,-27.2,22,19,17,30.18,30.09,21,6,21,0.04
2013-1-24,22.1,11.6,1.9,-13.8,-22.7,-30.8,24,19,17,30.30,30.12,23,4,23,0.04
2013-1-25,24.8,16.5,8.8,0.1,-15.8,-25.0,45,23,17,30.36,30.03,15,2,15,0.00
2013-1-26,26.1,18.1,11.3,1.1,-8.7,-18.0,48,31,19,30.33,30.00,18,3,18,0.00
2013-1-27,34.2,20.5,7.9,-0.3,-13.7,-23.0,46,21,15,30.47,30.30,17,2,17,0.00
2013-1-28,140.0,26.6,17.6,25.4,9.7,-13.9,74,51,23,30.47,29.97,11,2,11,0.00
2013-1-29,37.2,34.6,32.5,29.6,27.3,25.4,79,74,65,30.15,29.97,7,1,7,0.16
2013-1-30,55.8,44.8,34.0,52.0,39.4,27.5,87,81,77,30.09,29.38,21,3,21,0.00
2013-1-31,59.0,44.8,27.3,52.5,17.9,-9.6,87,41,14,29.71,29.03,36,11,36,1.26
2013-2-1,33.6,26.3,21.0,-6.1,-10.6,-16.4,22,19,17,30.15,29.71,29,8,29,0.00
2013-2-2,32.5,23.7,17.4,4.7,-9.1,-15.3,46,24,15,30.24,30.03,20,6,21,0.04
2013-2-3,33.8,24.0,15.8,8.8,0.7,-8.1,58,38,20,30.03,29.77,12,1,12,0.04
2013-2-4,33.1,24.9,20.1,7.2,-5.1,-13.9,51,28,18,29.94,29.77,22,5,24,0.04
2013-2-5,29.7,25.2,20.1,12.9,5.8,-10.1,57,44,25,29.97,29.88,6,0,6,0.04
2013-2-6,40.6,30.6,23.4,21.0,4.6,-14.3,66,37,16,30.33,29.88,20,3,21,0.04
2013-2-7,33.3,24.9,18.0,-5.9,-11.8,-16.9,25,19,15,30.50,30.30,9,2,9,0.04
2013-2-8,140.0,27.6,23.7,23.4,13.1,-6.9,77,57,24,30.36,29.62,23,5,23,0.04
2013-2-9,29.7,23.2,15.3,17.4,-2.1,-17.7,77,38,16,30.27,29.71,33,7,33,0.04
2013-2-10,41.5,24.4,10.2,-5.2,-13.1,-21.1,30,18,13,30.45,30.27,18,3,18,0.04
2013-2-11,43.3,33.0,21.6,36.3,21.3,-5.1,84,64,30,30.33,29.65,11,1,11,0.20
2013-2-12,49.5,38.7,35.1,34.4,13.7,1.2,85,41,16,29.94,29.68,30,6,30,0.04
2013-2-13,50.4,37.0,25.3,20.6,5.7,-4.0,61,29,14,29.91,29.68,12,2,12,0.04
2013-2-14,49.1,36.4,27.3,22.3,11.8,-1.1,69,42,14,29.97,29.71,11,2,12,0.08
2013-2-15,55.0,40.3,28.0,22.3,14.7,2.4,70,41,13,30.00,29.88,18,3,18,0.04
2013-2-16,40.5,32.7,27.3,25.5,8.1,-7.4,75,41,18,29.94,29.71,12,3,12,0.04
2013-2-17,33.3,23.3,14.4,-7.4,-13.5,-20.2,22,18,15,29.88,29.59,34,8,34,0.04
2013-2-18,36.3,24.4,13.6,-4.5,-12.6,-18.1,22,19,14,30.18,29.88,23,6,26,0.04
2013-2-19,47.3,34.7,21.7,33.8,12.9,-12.4,79,45,19,30.18,29.65,21,3,21,0.24
2013-2-20,36.3,29.6,22.5,20.8,-3.2,-12.4,53,24,17,29.91,29.65,30,9,30,0.04
2013-2-21,38.1,26.3,21.0,-2.3,-6.9,-11.4,33,23,16,30.27,29.88,28,8,28,0.04
2013-2-22,42.3,30.3,19.6,13.2,3.8,-3.6,48,34,18,30.39,30.24,12,2,12,0.04
2013-2-23,37.9,34.8,33.1,31.2,24.6,13.0,80,68,43,30.27,29.83,8,2,8,0.08
2013-2-24,42.4,36.1,32.0,33.8,23.1,7.6,85,62,34,29.94,29.74,15,3,15,0.04
2013-2-25,48.7,37.1,28.4,15.0,6.3,-1.6,48,29,14,30.24,29.91,16,3,16,0.00
2013-2-26,43.5,34.1,24.8,24.5,12.1,2.7,71,43,20,30.30,29.97,11,2,11,0.08
2013-2-27,43.5,38.7,32.9,38.2,33.2,24.5,83,80,71,29.97,29.50,16,4,16,0.94
2013-2-28,50.2,39.3,32.5,41.5,25.4,14.5,85,61,28,29.62,29.53,12,1,12,0.00
2013-3-1,140.0,38.0,34.2,23.5,13.9,3.9,59,38,20,29.74,29.56,15,3,15,0.00
2013-3-2,40.5,34.2,28.4,10.0,7.3,3.5,42,32,23,29.74,29.68,14,3,14,0.00
2013-3-3,35.1,30.0,26.4,10.2,4.1,-2.0,42,33,22,29.71,29.65,20,4,20,0.00
2013-3-4,44.4,32.7,25.7,6.3,0.9,-4.4,36,26,15,29.85,29.71,22,5,22,0.04
2013-3-5,48.6,37.3,28.2,9.7,4.3,-2.2,41,26,14,30.00,29.85,15,3,15,0.00
2013-3-6,40.1,37.1,35.1,27.8,15.7,8.4,64,42,31,30.00,29.91,18,5,18,0.00
2013-3-7,140.0,33.6,31.1,24.9,17.5,10.1,77,52,37,30.06,29.94,18,6,18,0.00
2013-3-8,37.4,33.4,28.8,25.2,17.3,7.2,79,55,31,30.18,29.97,16,5,16,0.04
2013-3-9,56.8,40.2,29.1,10.1,5.1,-3.7,42,25,12,30.33,30.15,16,3,16,0.16
2013-3-10,55.8,38.3,22.8,21.2,12.5,1.8,69,39,13,30.39,30.27,10,2,10,0.00
2013-3-11,55.9,44.2,35.4,39.8,27.1,19.8,77,54,26,30.30,30.09,13,3,13,0.00
2013-3-12,53.6,49.9,40.1,46.9,42.1,24.4,79,75,53,30.09,29.71,17,5,17,1.06
2013-3-13,54.5,42.1,32.5,24.9,10.5,-2.4,57,31,13,29.85,29.77,20,5,20,0.00
2013-3-14,38.3,31.6,27.7,13.5,0.0,-10.3,42,26,16,29.88,29.83,29,7,29,0.00
2013-3-19,40.6,35.9,31.6,30.4,22.9,12.7,75,60,44,29.77,29.65,20,4,22,0.35
2013-3-20,46.9,35.3,26.8,12.7,1.2,-6.2,42,25,14,29.83,29.74,24,6,24,0.00
2013-3-21,42.1,33.7,28.9,11.1,0.6,-8.9,43,26,16,29.83,29.62,14,3,14,0.00
2013-3-22,44.8,33.1,23.4,5.5,-2.9,-11.8,35,21,15,29.83,29.68,24,6,24,0.00
2013-3-23,48.4,38.3,30.6,7.8,1.1,-5.4,32,21,14,29.88,29.74,42,8,42,0.31
2013-3-24,48.7,37.1,25.5,9.0,0.0,-8.3,36,21,14,29.91,29.71,17,4,17,0.31
2013-3-25,45.0,38.3,32.0,13.9,6.2,1.5,45,27,17,29.71,29.44,12,4,12,0.31
2013-3-26,53.6,41.4,32.2,12.8,4.9,-5.0,36,23,13,29.83,29.56,19,3,19,0.00
2013-3-27,58.1,41.1,26.2,15.7,4.2,-3.5,47,24,12,29.91,29.83,19,3,19,0.00
2013-3-28,52.3,41.7,33.1,16.8,9.4,-5.0,39,27,16,30.09,29.91,14,4,16,0.00
2013-3-29,64.2,46.1,35.1,15.0,6.5,-0.9,39,21,10,30.12,30.00,18,4,18,0.00
2013-3-30,61.7,45.6,30.9,20.8,7.2,-5.4,52,24,11,30.15,30.03,16,2,16,0.00
2013-3-31,57.6,43.0,27.5,34.9,9.5,-6.1,72,29,12,30.12,29.68,19,3,19,0.04
2013-4-1,66.7,46.9,34.0,39.4,21.5,-6.2,77,43,12,29.85,29.59,27,6,27,0.12
2013-4-2,47.8,36.5,28.8,0.6,-5.1,-10.0,21,16,13,30.03,29.85,28,8,29,0.00
2013-4-3,50.9,37.6,28.9,3.1,-5.2,-10.6,18,16,13,30.27,30.00,29,8,29,0.00
2013-4-4,59.5,41.6,26.6,16.1,-0.7,-10.6,40,17,12,30.36,30.06,17,4,17,0.00
2013-4-5,66.2,47.9,37.6,16.3,6.5,-3.5,40,20,10,30.06,29.68,20,5,20,0.00
2013-4-6,54.0,40.9,31.1,4.2,-2.9,-9.6,22,15,13,30.30,29.94,21,4,23,0.00
2013-4-7,58.6,45.2,32.0,33.1,13.4,-3.3,62,31,12,30.30,30.00,19,4,20,0.00
2013-4-8,73.4,55.5,37.6,42.2,21.4,6.0,79,37,10,30.06,29.97,16,3,16,0.00
2013-4-9,81.3,63.9,47.7,46.0,23.7,6.0,75,29,10,30.00,29.88,29,4,33,0.00
2013-4-10,72.5,58.8,49.1,46.8,34.8,21.1,75,45,19,29.94,29.83,13,2,22,0.20
2013-4-11,60.4,52.1,45.3,48.7,35.5,24.2,80,55,31,30.06,29.80,11,2,11,0.04
2013-4-12,45.3,40.2,37.2,33.5,25.2,7.4,80,58,23,30.06,29.74,13,4,16,0.28
2013-4-13,58.8,46.2,36.1,35.3,20.8,6.8,80,45,14,29.94,29.74,14,3,14,0.04
2013-4-14,60.1,48.3,37.4,19.3,7.7,-2.4,37,20,11,30.21,29.94,22,4,23,0.24
2013-4-15,62.6,46.8,33.8,18.9,9.7,1.8,46,25,11,30.39,30.21,12,2,12,0.24
2013-4-16,67.8,52.4,38.7,44.6,29.8,14.2,67,43,22,30.36,30.09,16,3,16,0.00
2013-4-17,69.4,57.4,46.8,45.5,19.2,2.9,72,29,10,30.30,30.12,16,3,16,0.00
2013-4-18,63.5,51.6,40.3,37.8,20.1,4.8,65,33,11,30.36,30.12,15,3,16,0.00
2013-4-19,75.7,62.4,51.6,56.6,48.2,38.2,87,63,27,30.12,29.65,25,6,25,0.00
2013-4-20,62.8,52.7,40.8,54.0,19.4,-2.1,74,36,11,30.27,29.65,27,6,27,0.31
2013-4-21,57.7,43.5,32.5,7.8,2.2,-4.1,31,19,12,30.62,30.27,15,4,15,0.00
2013-4-22,59.7,45.0,32.2,27.9,11.6,1.0,62,30,12,30.68,30.50,15,3,15,0.00
2013-4-23,48.0,41.5,35.8,29.6,21.5,14.9,65,45,37,30.50,30.12,10,3,10,0.00
2013-4-24,77.2,55.8,41.2,40.7,26.0,13.4,67,39,10,30.12,29.83,15,4,15,0.00
2013-4-25,68.2,55.6,42.6,44.5,14.3,0.1,72,25,10,30.27,29.85,24,4,24,0.00
2013-4-26,70.2,52.4,34.5,22.6,10.1,1.4,54,22,10,30.42,30.27,15,2,15,0.00
2013-4-27,72.5,55.0,36.1,17.8,8.5,-0.9,42,17,10,30.42,30.27,18,2,18,0.00
2013-4-28,74.1,56.0,38.5,28.3,13.4,1.8,52,22,10,30.33,30.21,15,2,15,0.00
2013-4-29,58.6,54.0,48.7,33.4,21.7,3.1,49,30,14,30.24,30.21,10,2,10,0.00
2013-4-30,72.5,58.1,46.4,32.4,15.6,0.4,51,23,10,30.33,30.21,12,2,12,0.00
2013-5-1,74.8,55.6,36.3,24.3,13.9,2.9,51,23,10,30.47,30.33,13,2,13,0.00
2013-5-2,83.8,60.9,39.6,36.8,20.8,7.4,70,29,10,30.47,30.30,13,2,13,0.00
2013-5-3,73.8,58.8,48.2,29.8,13.6,5.3,48,19,10,30.45,30.33,11,2,11,0.00
2013-5-4,76.1,56.3,41.2,43.9,24.2,8.7,76,38,10,30.36,30.21,14,2,14,0.00
2013-5-5,73.8,52.7,38.3,34.9,21.7,7.4,75,38,10,30.30,30.21,12,2,12,0.00
2013-5-6,78.3,57.1,40.3,38.0,27.9,13.6,72,41,10,30.27,30.15,12,2,12,0.00
2013-5-7,79.3,61.9,44.4,48.3,33.1,15.5,76,42,10,30.18,30.09,11,2,11,0.04
2013-5-8,65.3,60.3,55.6,58.3,51.6,44.7,81,73,57,30.15,30.00,10,2,10,0.67
2013-5-9,65.1,58.0,53.1,54.3,48.5,42.5,83,71,48,30.03,29.88,7,0,7,0.08
2013-5-10,83.3,64.6,49.3,57.4,35.6,14.2,83,46,10,30.00,29.88,11,1,11,0.04
2013-5-11,65.8,62.3,59.0,56.5,51.8,38.4,81,69,41,29.88,29.71,14,2,15,0.28
2013-5-12,71.4,60.7,49.6,53.9,29.5,1.8,81,42,10,29.88,29.65,22,3,22,0.12
2013-5-13,61.5,49.0,38.5,20.7,6.9,-0.9,48,19,11,30.09,29.88,20,2,20,0.12
2013-5-14,65.7,48.7,35.1,24.2,12.3,2.0,57,28,10,30.09,30.00,15,1,15,0.12
2013-5-15,69.3,51.4,34.9,42.5,29.3,17.7,69,46,23,30.06,29.68,12,1,14,0.16
2013-5-16,86.9,65.8,46.0,51.1,28.6,8.3,80,37,10,29.83,29.71,20,2,20,0.12
2013-5-17,75.0,60.2,50.7,32.2,20.5,6.9,47,24,10,30.21,29.83,15,1,15,0.12
2013-5-18,72.1,56.7,43.7,41.8,28.8,11.4,73,41,11,30.30,30.21,12,1,12,0.12
2013-5-19,57.7,55.8,53.2,50.8,47.2,37.5,82,73,55,30.33,30.18,8,0,8,0.12
2013-5-20,86.5,67.7,55.9,58.6,48.0,32.8,83,57,16,30.18,29.97,14,2,14,0.08
2013-5-21,93.6,74.7,59.2,62.8,47.6,27.5,80,48,10,30.00,29.83,16,2,16,0.08
2013-5-22,85.5,68.1,57.6,57.0,52.3,43.4,78,60,25,29.94,29.85,10,2,10,0.04
2013-5-23,73.2,67.1,64.6,61.4,59.2,55.8,82,76,57,29.91,29.77,13,2,13,3.03
2013-5-24,65.3,56.1,45.0,59.0,47.9,33.9,83,74,49,29.91,29.68,15,3,15,0.47
2013-5-25,49.5,45.0,42.3,38.0,32.8,22.5,79,63,38,29.94,29.85,20,4,20,0.55
2013-5-26,64.6,52.4,44.2,29.2,19.5,5.3,55,30,10,30.18,29.88,29,4,29,0.00
2013-5-27,80.1,58.7,39.7,36.8,21.6,6.0,70,33,10,30.21,30.12,17,2,17,0.00
2013-5-28,70.2,54.5,45.5,50.8,37.2,13.1,79,58,12,30.24,30.15,10,0,10,0.24
2013-5-29,84.2,67.9,57.0,61.2,50.5,40.4,83,60,22,30.15,30.00,12,1,12,0.12
2013-5-30,96.4,85.1,70.2,64.0,37.9,23.8,78,23,10,30.12,30.06,13,2,13,0.00
2013-5-31,97.5,78.0,64.2,65.8,45.5,24.4,78,42,10,30.12,30.00,12,0,12,0.00
2013-6-1,94.3,76.6,65.1,60.0,46.4,27.1,72,43,10,30.03,29.91,12,2,12,0.00
2013-6-2,91.4,81.6,72.1,51.9,46.7,39.5,49,31,17,29.85,29.77,15,3,15,0.00
2013-6-3,82.0,69.6,64.4,61.4,56.9,40.8,81,66,25,29.85,29.80,10,1,11,0.71
2013-6-4,81.1,63.5,52.3,35.6,22.6,11.2,48,23,10,30.12,29.91,15,1,15,0.00
2013-6-5,80.4,62.2,48.6,40.3,26.7,11.4,66,33,10,30.21,30.12,9,0,9,0.00
2013-6-6,54.9,54.1,53.2,34.6,34.2,33.6,49,47,45,30.15,30.15,0,0,0,0.00
2013-6-13,56.1,54.2,52.9,50.9,49.4,47.8,84,84,82,29.59,29.56,7,3,8,1.54
2013-6-14,78.1,60.3,51.1,52.2,44.1,28.2,85,61,17,29.88,29.59,9,1,9,1.14
2013-6-15,84.9,69.8,54.7,55.5,30.6,14.2,79,32,10,30.00,29.88,13,2,13,0.04
2013-6-16,76.3,58.8,53.4,52.7,44.2,24.7,73,61,15,30.00,29.88,8,0,8,0.04
2013-6-17,90.5,72.6,60.6,60.9,42.1,15.5,78,41,10,29.94,29.83,15,2,15,0.04
2013-6-18,83.3,67.2,59.5,58.4,52.1,41.3,80,62,24,29.94,29.83,7,0,7,0.12
2013-6-19,81.3,69.6,57.4,54.6,27.3,12.7,80,25,10,30.18,29.91,14,2,14,0.00
2013-6-20,86.0,66.3,50.7,50.7,34.2,16.5,73,39,10,30.27,30.18,10,1,10,0.00
2013-6-21,87.3,70.9,56.3,49.6,35.4,22.0,70,32,10,30.30,30.24,12,2,13,0.00
2013-6-22,88.2,71.8,57.9,50.2,35.9,23.0,68,32,10,30.27,30.15,10,2,13,0.00
2013-6-23,94.3,75.7,61.0,57.1,44.1,25.3,69,38,10,30.18,30.06,13,2,13,0.00
2013-6-24,95.7,78.4,68.2,63.8,51.1,27.0,76,47,10,30.09,29.94,17,2,17,0.08
2013-6-25,94.6,78.0,65.5,65.8,50.4,25.8,80,47,10,30.00,29.80,16,2,16,0.04
2013-6-26,80.2,75.2,69.4,61.1,53.8,46.4,74,49,32,29.85,29.77,12,1,12,0.00
2013-6-27,85.5,73.0,67.8,66.5,59.2,48.7,81,64,29,29.85,29.62,11,0,11,0.35
2013-6-28,87.4,75.7,70.0,66.5,58.6,42.2,84,59,23,29.62,29.50,12,2,12,0.39
2013-6-29,87.6,75.3,67.1,62.2,53.4,36.9,77,52,19,29.71,29.50,13,2,13,0.00
2013-6-30,84.0,76.6,72.5,66.7,60.7,53.8,77,59,37,29.94,29.83,10,1,11,0.00
2013-7-1,75.2,72.7,71.2,67.1,64.7,62.1,80,76,70,30.06,29.94,9,1,9,0.91
2013-7-2,83.1,73.5,71.2,67.7,64.3,54.2,82,74,37,30.15,30.06,10,2,10,0.04
2013-7-3,87.1,79.9,72.5,63.7,56.3,48.4,70,46,28,30.27,30.18,13,2,14,0.00
2013-7-4,93.2,80.7,73.2,67.7,57.5,41.2,79,50,17,30.27,30.15,17,3,17,0.00
2013-7-5,95.5,82.0,73.0,64.6,54.4,29.7,69,44,11,30.21,30.09,15,2,15,0.00
2013-7-6,95.7,83.0,75.6,63.5,52.3,31.1,65,40,11,30.15,30.03,13,3,13,0.00
2013-7-7,96.1,81.9,72.5,69.8,59.2,38.0,80,52,16,30.06,29.91,10,1,10,0.00
2013-7-8,93.2,80.4,71.2,61.8,47.7,27.7,62,36,10,30.06,29.97,12,2,14,0.00
2013-7-9,89.6,74.0,67.5,67.9,59.4,44.4,83,64,22,30.09,30.00,12,0,12,1.50
2013-7-10,87.1,75.9,69.4,70.4,63.7,51.1,86,69,31,30.03,29.83,10,1,10,0.39
2013-7-11,84.9,75.4,67.8,68.8,59.1,46.5,81,60,29,29.94,29.80,8,0,8,0.08
2013-7-12,79.3,70.8,64.2,59.3,52.2,43.1,79,54,31,30.15,29.94,6,0,6,0.00
2013-7-13,76.6,69.9,63.9,65.6,60.1,53.7,77,71,62,30.30,30.15,4,0,6,0.04
2013-7-14,94.3,80.1,72.1,69.5,59.1,41.2,82,54,17,30.33,30.24,9,1,9,0.00
2013-7-15,95.5,81.7,72.3,66.9,54.6,32.2,73,45,11,30.24,30.15,11,1,12,0.00
2013-7-16,95.9,80.4,70.0,63.4,50.6,27.1,74,44,10,30.21,30.15,13,1,13,0.00
2013-7-17,97.9,81.6,70.0,67.6,52.5,29.0,79,45,10,30.21,30.06,9,0,9,0.00
2013-7-18,98.4,83.1,72.7,72.4,56.3,32.1,80,47,10,30.09,29.97,10,1,10,0.08
2013-7-19,99.1,85.5,73.6,69.6,53.8,32.0,79,41,10,29.97,29.80,18,3,19,0.00
2013-7-20,94.3,83.5,73.9,57.5,51.7,36.8,54,35,14,29.85,29.74,19,2,19,0.00
2013-7-21,89.6,76.1,68.2,64.7,51.9,29.6,77,48,13,30.00,29.85,4,0,4,0.16
2013-7-22,84.9,73.6,67.1,66.1,61.0,54.5,79,66,38,30.00,29.85,8,0,8,0.04
2013-7-23,89.8,75.7,71.6,69.0,62.4,41.9,84,67,19,29.85,29.56,19,1,19,1.22
2013-7-24,81.7,73.0,63.0,67.6,52.2,34.7,82,53,23,29.97,29.62,10,1,11,0.00
2013-7-25,64.9,62.0,59.5,52.1,40.8,34.2,73,46,35,30.09,29.97,4,0,4,0.04
2013-7-26,85.3,68.6,60.8,59.2,49.8,32.8,82,57,16,30.06,30.00,8,0,8,0.00
2013-7-27,86.7,71.4,60.6,62.1,47.3,27.5,80,50,13,30.06,30.00,10,1,10,0.00
2013-7-28,79.0,70.3,64.2,63.1,55.0,45.0,80,61,31,30.03,29.94,10,0,10,0.00
2013-7-29,88.5,74.8,66.6,66.2,46.5,17.7,82,48,10,30.09,29.97,16,1,16,0.04
2013-7-30,85.8,70.3,59.4,50.7,37.3,18.0,66,35,10,30.18,30.09,12,1,12,0.04
2013-7-31,86.4,69.8,58.8,57.4,43.1,20.0,77,46,10,30.18,30.06,10,0,10,0.04
2013-8-1,75.6,66.8,61.9,61.3,54.1,44.0,77,65,34,30.06,29.91,9,1,10,0.20
2013-8-2,85.5,72.6,64.8,62.1,46.9,20.3,83,50,10,29.91,29.80,14,1,14,0.20
2013-8-3,82.2,70.4,64.2,58.2,48.4,38.2,72,48,23,29.91,29.85,13,2,13,0.20
2013-8-4,83.7,67.9,59.4,58.3,43.1,14.2,79,48,10,29.97,29.85,13,1,13,0.20
2013-8-5,82.6,65.8,55.4,49.0,31.8,14.2,73,35,10,30.06,29.97,15,1,15,0.20
2013-8-6,84.6,66.6,52.5,53.2,39.3,18.0,78,45,10,30.15,30.06,10,0,10,0.00
2013-8-7,80.1,67.5,57.6,57.9,47.9,35.3,77,53,22,30.18,30.09,10,1,10,0.00
2013-8-8,85.1,73.8,68.7,63.5,59.1,49.5,78,62,31,30.09,30.03,12,2,12,0.00
2013-8-9,82.6,74.5,71.4,70.3,64.6,55.6,83,72,42,30.03,29.80,14,3,14,0.91
2013-8-10,87.1,73.0,63.0,64.2,46.9,19.2,81,49,10,30.06,29.85,13,1,13,0.00
2013-8-11,84.4,68.2,55.8,50.6,37.6,17.3,69,41,10,30.15,30.03,9,0,9,0.00
2013-8-12,86.4,71.2,61.3,59.1,44.7,23.1,78,47,11,30.06,29.94,7,0,7,0.00
2013-8-13,79.7,69.1,64.4,63.9,56.8,46.2,81,66,32,29.94,29.71,8,1,8,0.16
2013-8-14,78.1,66.0,57.6,56.2,34.1,14.2,72,36,10,30.03,29.77,23,3,23,0.00
2013-8-15,80.6,63.9,51.6,51.5,34.0,14.2,77,43,10,30.15,30.03,12,1,12,0.00
2013-8-16,81.3,65.2,54.1,54.2,40.0,17.3,78,47,12,30.21,30.15,8,0,8,0.00
2013-8-17,85.3,67.3,55.4,57.2,44.1,22.0,79,51,11,30.30,30.21,4,0,4,0.00
2013-8-18,76.5,66.4,59.7,58.7,50.1,38.2,79,59,26,30.30,30.15,4,0,4,0.00
2013-8-19,78.3,68.5,59.4,58.6,48.3,34.6,80,53,21,30.15,30.03,8,1,8,0.00
2013-8-20,89.1,72.3,60.1,62.1,46.6,23.3,80,50,10,30.15,30.06,10,1,10,0.00
2013-8-21,91.4,74.0,63.0,65.9,47.6,23.8,80,50,10,30.18,30.06,9,0,9,0.00
2013-8-22,79.0,71.6,64.6,65.8,58.8,53.5,80,65,42,30.09,29.88,10,1,10,0.12
2013-8-23,84.4,71.3,60.6,63.6,46.0,22.0,80,47,11,30.12,29.88,12,1,12,0.00
2013-8-24,82.8,66.1,53.2,48.3,37.4,16.3,75,44,10,30.36,30.12,7,0,7,0.00
2013-8-25,86.9,67.1,54.5,55.0,38.3,14.4,80,47,10,30.42,30.24,11,0,11,0.00
2013-8-26,75.4,69.4,63.3,61.9,48.6,39.9,77,49,31,30.24,29.94,12,1,12,0.12
2013-8-27,87.1,73.8,68.0,66.3,56.9,38.2,83,61,20,29.94,29.83,11,1,11,0.67
2013-8-28,86.7,72.4,66.0,69.4,57.4,43.2,81,63,24,29.91,29.85,13,0,13,0.00
2013-8-29,81.3,70.8,66.6,62.5,55.1,43.3,81,61,28,30.06,29.91,4,0,4,0.00
2013-8-30,87.6,73.3,65.7,61.3,52.2,33.7,76,52,15,30.06,29.85,11,1,11,0.00
2013-8-31,83.8,76.2,71.4,64.3,59.8,53.9,71,58,37,29.88,29.80,12,2,12,0.00
2013-9-1,82.9,76.1,72.0,67.5,62.6,55.7,79,64,41,29.88,29.83,8,1,8,0.00
2013-9-2,80.4,72.9,68.9,69.3,63.8,55.9,83,74,45,29.85,29.71,9,0,9,0.35
2013-9-3,80.4,70.1,61.7,66.3,53.0,29.3,85,60,18,29.88,29.74,14,1,14,0.04
2013-9-4,83.1,68.4,57.2,55.7,38.5,18.6,78,43,10,30.00,29.88,10,1,12,0.00
2013-9-5,76.8,64.9,52.5,55.1,35.4,11.1,76,41,10,30.15,29.91,13,1,13,0.00
2013-9-6,75.0,58.0,46.6,42.7,27.9,8.6,74,39,10,30.27,30.15,9,0,9,0.00
2013-9-7,81.7,62.0,45.7,50.2,32.6,14.2,79,43,10,30.15,29.91,10,1,10,0.00
2013-9-8,80.6,67.7,55.8,47.0,34.3,12.6,56,32,10,30.09,29.83,15,1,15,0.00
2013-9-9,74.8,59.2,46.2,45.9,31.3,13.6,75,42,10,30.27,30.09,9,0,9,0.00
2013-9-10,84.2,70.3,58.3,63.7,56.2,43.6,80,63,33,30.18,30.06,13,2,13,0.08
2013-9-11,97.3,80.6,69.4,68.2,57.4,43.5,79,51,17,30.12,30.00,12,1,12,0.00
2013-9-12,89.1,74.2,68.0,65.5,59.4,47.3,80,63,24,30.00,29.71,11,1,16,0.51
2013-9-13,78.1,67.0,56.7,62.1,49.2,31.8,82,57,22,29.85,29.65,13,1,13,0.04
2013-9-14,68.9,57.8,50.7,40.2,32.3,23.8,65,40,20,30.12,29.83,14,2,14,0.00
2013-9-15,75.2,56.6,43.9,47.8,32.7,13.4,78,50,10,30.21,30.09,10,0,10,0.00
2013-9-16,70.9,58.5,52.0,53.5,41.2,28.9,80,57,23,30.27,30.03,10,0,10,0.00
2013-9-17,68.9,53.8,41.2,35.4,22.9,6.8,70,37,10,30.45,30.27,8,0,8,0.00
2013-9-18,55.6,54.6,53.8,34.6,33.7,32.9,48,45,42,30.21,30.18,0,0,0,0.00
2013-9-19,82.2,66.6,47.1,54.3,32.7,14.2,81,39,10,30.18,30.06,9,0,9,0.00
2013-9-20,83.7,62.0,49.6,58.3,39.9,18.5,81,54,10,30.12,30.00,8,0,8,0.00
2013-9-21,74.3,63.8,54.3,61.0,52.7,46.6,81,68,43,30.03,29.68,12,2,12,0.16
2013-9-22,72.0,62.0,52.0,61.1,39.2,18.5,82,49,16,29.91,29.65,15,2,15,0.87
2013-9-23,66.6,53.8,43.7,34.9,23.9,10.8,61,36,12,30.06,29.91,15,2,17,0.16
2013-9-24,74.5,54.4,41.0,39.4,28.8,12.5,75,46,10,30.06,29.85,17,1,17,0.16
2013-9-25,74.7,56.7,43.3,45.0,34.1,14.1,78,52,10,29.97,29.88,10,0,10,0.16
2013-9-26,73.6,59.2,51.8,50.8,41.1,19.4,81,57,14,30.12,29.97,10,0,10,0.16
2013-9-27,63.0,54.7,46.8,51.5,41.7,35.3,83,64,36,30.30,30.12,4,0,4,0.16
2013-9-28,76.5,58.9,47.1,55.0,39.6,14.8,84,58,13,30.36,30.27,6,0,6,0.16
2013-9-29,74.1,57.8,49.5,55.7,41.2,26.8,83,60,18,30.27,30.09,4,0,5,0.16
2013-9-30,76.6,58.1,47.1,53.7,37.9,15.4,83,56,10,30.12,29.97,7,0,7,0.16
2013-10-1,81.0,61.3,49.1,59.2,41.5,18.6,82,58,10,30.03,29.91,7,0,8,0.16
2013-10-2,83.8,66.0,50.5,59.5,42.7,28.2,82,50,14,30.03,29.91,12,1,12,0.16
2013-10-3,79.9,62.7,50.4,53.2,39.3,14.2,79,50,10,30.15,30.03,10,0,10,0.16
2013-10-4,86.4,65.8,55.9,58.6,48.7,37.2,80,59,19,30.09,29.97,11,1,11,0.16
2013-10-5,81.1,67.1,60.4,56.6,50.8,38.4,76,59,23,30.12,30.03,6,0,6,0.16
2013-10-6,65.1,62.0,60.4,58.4,56.7,54.9,86,83,74,30.15,30.06,8,1,8,0.20
2013-10-7,75.2,65.9,58.1,63.5,56.5,39.1,87,73,44,30.06,29.77,15,3,18,0.28
2013-10-8,67.6,55.1,46.8,44.0,30.7,11.1,78,47,12,30.36,29.97,11,1,11,0.16
2013-10-9,66.2,51.4,41.4,43.0,33.0,20.0,82,55,17,30.45,30.33,6,0,6,0.16
2013-10-10,61.0,53.5,46.8,41.5,38.8,36.1,75,59,40,30.33,30.15,5,0,5,0.16
2013-10-11,68.2,60.0,53.1,49.4,43.4,38.7,72,55,35,30.15,30.06,5,0,5,0.16
2013-10-12,69.6,53.2,47.3,45.7,38.1,28.5,78,60,23,30.24,30.12,6,0,6,0.16